Time;durP1;ratioP1;P1;durP2;ratioP2;P2;SDS_P1;SDS_P2;PMS_P1;PMS_P2;Temp;Humidity;BMP_temperature;BMP_pressure;BME280_temperature;BME280_humidity;BME280_pressure;Samples;Min_cycle;Max_cycle;Signal;HPM_P1;HPM_P2
2022/01/16 00:04:09;;;;;;;2.90;0.90;;;;;;;9.68;38.91;99549.95;1690011;84;21498;-78
2022/01/16 00:06:45;;;;;;;2.40;1.00;;;;;;;9.97;38.33;99542.34;1690767;84;21103;-69
2022/01/16 00:09:11;;;;;;;2.55;1.00;;;;;;;9.85;38.48;99545.19;1690845;84;21011;-73
2022/01/16 00:11:38;;;;;;;2.52;0.85;;;;;;;9.74;38.71;99538.77;1690856;84;21052;-78
2022/01/16 00:14:06;;;;;;;3.00;0.90;;;;;;;9.78;38.73;99547.78;1689918;84;21117;-78
2022/01/16 00:16:32;;;;;;;3.27;1.05;;;;;;;9.23;39.43;99553.42;1691549;84;21087;-69
2022/01/16 00:18:59;;;;;;;4.05;1.30;;;;;;;9.13;39.57;99556.85;1691398;84;20941;-69
2022/01/16 00:21:32;;;;;;;2.72;0.85;;;;;;;9.34;39.38;99561.98;1690758;84;21023;-70
2022/01/16 00:23:59;;;;;;;2.62;0.90;;;;;;;9.54;39.01;99566.48;1687790;84;21144;-79
2022/01/16 00:26:28;;;;;;;3.25;1.20;;;;;;;9.50;39.13;99562.96;1691155;84;20926;-70
2022/01/16 00:28:55;;;;;;;3.60;1.15;;;;;;;9.41;39.25;99568.03;1691393;84;21506;-71
2022/01/16 00:31:23;;;;;;;2.77;1.05;;;;;;;9.49;38.81;99563.97;1690918;84;21137;-70
2022/01/16 00:33:50;;;;;;;3.05;1.00;;;;;;;9.76;38.72;99573.20;1690649;84;21053;-78
2022/01/16 00:36:18;;;;;;;2.77;0.80;;;;;;;9.85;38.32;99561.63;1686179;84;21173;-68
2022/01/16 00:38:47;;;;;;;3.47;1.10;;;;;;;9.83;38.38;99569.32;1691721;84;21056;-69
2022/01/16 00:41:14;;;;;;;3.40;1.17;;;;;;;9.52;39.09;99564.59;1687989;84;20941;-70
2022/01/16 00:43:43;;;;;;;2.25;0.88;;;;;;;9.17;39.34;99554.20;1691576;84;21502;-69
2022/01/16 00:46:11;;;;;;;2.80;0.80;;;;;;;9.26;39.40;99554.34;1690229;84;20964;-80
2022/01/16 00:48:38;;;;;;;2.27;0.90;;;;;;;9.36;39.33;99562.61;1689674;82;23242;-68
2022/01/16 00:51:04;;;;;;;3.85;1.07;;;;;;;9.56;39.06;99578.31;1690646;84;21020;-68
2022/01/16 00:53:31;;;;;;;2.83;1.05;;;;;;;9.55;38.82;99575.92;1690613;84;20989;-68
2022/01/16 00:55:57;;;;;;;3.65;1.20;;;;;;;9.57;38.92;99585.12;1691360;84;20902;-78
2022/01/16 00:58:24;;;;;;;3.80;1.00;;;;;;;9.68;38.75;99582.47;1689768;84;21056;-69
2022/01/16 01:00:51;;;;;;;3.17;0.98;;;;;;;9.24;39.18;99583.63;1691646;84;21180;-69
2022/01/16 01:03:17;;;;;;;3.33;1.07;;;;;;;9.11;39.60;99584.85;1690642;84;20977;-68
2022/01/16 01:05:44;;;;;;;2.35;0.88;;;;;;;9.09;39.76;99589.42;1690439;84;20976;-78
2022/01/16 01:08:11;;;;;;;3.47;1.00;;;;;;;9.62;39.23;99581.93;1685508;84;21158;-75
2022/01/16 01:10:40;;;;;;;3.30;0.93;;;;;;;9.72;38.69;99570.17;1687300;84;21036;-69
2022/01/16 01:13:12;;;;;;;3.83;1.20;;;;;;;9.89;38.41;99578.47;1686172;84;21173;-69
2022/01/16 01:15:45;;;;;;;2.05;0.88;;;;;;;9.15;39.35;99595.98;1687722;84;21033;-78
2022/01/16 01:18:14;;;;;;;3.30;1.10;;;;;;;9.27;39.28;99601.45;1685721;84;21122;-69
2022/01/16 01:20:42;;;;;;;2.62;0.88;;;;;;;9.11;39.45;99603.05;1687109;84;21435;-69
2022/01/16 01:23:10;;;;;;;3.65;1.00;;;;;;;9.09;39.64;99612.35;1686131;84;21692;-69
2022/01/16 01:25:39;;;;;;;3.70;1.07;;;;;;;9.31;39.53;99627.89;1687061;84;21244;-70
2022/01/16 01:28:09;;;;;;;3.05;1.02;;;;;;;9.30;39.66;99629.69;1685950;84;21063;-68
2022/01/16 01:30:38;;;;;;;2.52;0.90;;;;;;;9.55;39.31;99646.17;1687628;84;20980;-72
2022/01/16 01:33:04;;;;;;;2.92;1.00;;;;;;;9.61;39.26;99678.71;1685164;84;22429;-69
2022/01/16 01:35:38;;;;;;;2.35;0.90;;;;;;;9.60;39.43;99717.95;1685869;84;21051;-70
2022/01/16 01:37:59;;;;;;;2.02;1.00;;;;;;;9.99;38.97;99727.29;1683219;84;21194;-69
2022/01/16 01:40:26;;;;;;;3.67;1.47;;;;;;;9.78;39.26;99763.83;1685862;84;20981;-69
2022/01/16 01:51:21;;;;;;;4.35;1.07;;;;;;;9.75;39.10;99561.19;1687243;84;21263;-70
2022/01/16 01:53:50;;;;;;;2.27;0.72;;;;;;;9.44;39.34;99544.24;1686505;84;21019;-81
2022/01/16 01:56:18;;;;;;;2.10;0.80;;;;;;;9.60;39.19;99550.11;1682881;84;20948;-70
2022/01/16 01:58:47;;;;;;;3.42;1.55;;;;;;;9.24;39.69;99581.02;1684760;84;21884;-70
2022/01/16 02:01:13;;;;;;;4.10;0.90;;;;;;;8.95;40.10;99630.13;1686127;84;21126;-70
2022/01/16 02:06:11;;;;;;;5.70;0.93;;;;;;;9.28;39.87;99680.27;1682852;84;21504;-69
2022/01/16 02:08:38;;;;;;;2.52;0.80;;;;;;;8.96;40.23;99642.94;1685145;84;20902;-80
2022/01/16 02:11:05;;;;;;;2.55;0.90;;;;;;;8.83;40.80;99620.74;1683484;84;21059;-70
2022/01/16 02:13:35;;;;;;;2.37;0.60;;;;;;;8.87;40.88;99647.97;1685585;84;21028;-70
2022/01/16 02:29:57;;;;;;;1.47;0.40;;;;;;;9.03;40.68;99669.48;1683703;84;21179;-80
2022/01/16 02:34:40;;;;;;;1.20;0.40;;;;;;;8.86;41.12;99650.73;1685680;84;21491;-75
2022/01/16 02:37:13;;;;;;;2.58;0.55;;;;;;;9.11;40.87;99655.05;1683576;84;21054;-68
2022/01/16 02:39:43;;;;;;;2.10;0.70;;;;;;;9.09;40.80;99660.92;1683673;84;20980;-67
2022/01/16 02:42:11;;;;;;;1.12;0.37;;;;;;;9.10;40.58;99681.55;1682028;84;21166;-69
2022/01/16 02:44:50;;;;;;;1.32;0.53;;;;;;;9.26;40.44;99687.77;1688514;84;21043;-70
2022/01/16 02:47:19;;;;;;;2.05;0.50;;;;;;;9.06;40.70;99697.72;1681184;84;20908;-77
2022/01/16 02:49:51;;;;;;;1.17;0.45;;;;;;;8.75;41.10;99706.13;1684726;84;21096;-71
2022/01/16 02:52:20;;;;;;;2.37;0.80;;;;;;;8.91;41.00;99709.48;1681858;84;21059;-81
2022/01/16 02:54:50;;;;;;;1.92;0.57;;;;;;;8.98;40.56;99705.95;1688241;84;22444;-68
2022/01/16 02:57:19;;;;;;;2.22;0.80;;;;;;;9.21;40.24;99697.15;1690192;84;20980;-69
2022/01/16 02:59:51;;;;;;;1.98;0.78;;;;;;;9.61;39.68;99702.63;1691637;84;21020;-67
2022/01/16 03:02:20;;;;;;;1.85;0.50;;;;;;;9.34;39.84;99712.84;1686350;84;21001;-68
2022/01/16 03:04:46;;;;;;;2.33;0.70;;;;;;;9.60;39.25;99720.55;1684457;84;21090;-68
2022/01/16 03:07:13;;;;;;;2.12;0.60;;;;;;;9.59;39.29;99721.55;1658429;84;21201;-69
2022/01/16 03:12:13;;;;;;;2.22;0.70;;;;;;;9.61;39.32;99718.25;1672632;84;21508;-67
2022/01/16 03:14:42;;;;;;;4.25;0.82;;;;;;;9.30;39.47;99731.12;1673552;84;21046;-68
2022/01/16 03:17:11;;;;;;;2.45;0.60;;;;;;;9.03;39.92;99729.28;1670490;84;21069;-69
2022/01/16 03:22:25;;;;;;;2.70;0.90;;;;;;;9.74;38.79;99720.95;1673127;84;21067;-67
2022/01/16 03:24:51;;;;;;;1.70;0.57;;;;;;;9.77;38.56;99731.45;1674816;84;22457;-69
2022/01/16 03:27:21;;;;;;;2.85;0.80;;;;;;;8.94;39.45;99728.58;1673685;84;21078;-67
2022/01/16 03:29:51;;;;;;;2.37;0.72;;;;;;;8.68;40.14;99732.53;1674128;84;21010;-70
2022/01/16 03:32:20;;;;;;;3.42;0.93;;;;;;;9.30;39.38;99736.33;1670305;84;21829;-80
2022/01/16 03:34:46;;;;;;;1.60;0.60;;;;;;;9.32;39.04;99734.83;1673928;84;22564;-69
2022/01/16 03:37:13;;;;;;;2.17;0.60;;;;;;;9.42;38.86;99737.91;1673556;84;21050;-69
2022/01/16 03:39:40;;;;;;;1.57;0.65;;;;;;;9.91;38.10;99744.88;1673129;83;21118;-68
2022/01/16 03:42:07;;;;;;;1.90;0.65;;;;;;;9.55;38.46;99752.34;1674953;84;21528;-69
2022/01/16 03:44:36;;;;;;;1.95;0.65;;;;;;;10.06;37.76;99755.18;1673076;84;22092;-67
2022/01/16 03:47:03;;;;;;;1.87;0.60;;;;;;;10.16;37.50;99753.04;1674320;84;21036;-67
2022/01/16 03:49:31;;;;;;;2.58;0.80;;;;;;;9.81;37.93;99745.23;1673634;84;20963;-67
2022/01/16 03:52:01;;;;;;;2.22;0.50;;;;;;;9.36;38.51;99764.70;1673969;84;21059;-79
2022/01/16 03:54:30;;;;;;;2.10;0.50;;;;;;;9.29;38.51;99762.03;1672785;84;21121;-67
2022/01/16 03:56:58;;;;;;;2.37;0.80;;;;;;;9.21;38.56;99773.36;1675376;84;21178;-68
2022/01/16 03:59:24;;;;;;;2.47;0.85;;;;;;;9.05;39.02;99767.58;1673315;84;20963;-69
2022/01/16 04:01:51;;;;;;;2.65;0.70;;;;;;;9.20;38.94;99768.33;1687997;80;21009;-74
2022/01/16 04:04:17;;;;;;;2.17;0.60;;;;;;;9.11;38.76;99770.75;1676308;84;21124;-69
2022/01/16 04:06:47;;;;;;;2.27;0.68;;;;;;;9.26;38.64;99765.00;1675938;84;21103;-69
2022/01/16 04:09:14;;;;;;;2.25;0.78;;;;;;;9.16;38.70;99769.69;1675606;84;21170;-71
2022/01/16 04:11:49;;;;;;;1.85;0.62;;;;;;;9.01;38.79;99769.25;1674829;84;21021;-80
2022/01/16 04:14:15;;;;;;;2.20;0.60;;;;;;;9.12;38.50;99771.05;1674181;84;20957;-70
2022/01/16 04:16:38;;;;;;;3.15;0.60;;;;;;;9.27;38.07;99761.40;1674813;84;21097;-69
2022/01/16 04:19:04;;;;;;;1.67;0.60;;;;;;;9.08;38.26;99769.81;1675585;84;21083;-69
2022/01/16 04:21:34;;;;;;;1.95;0.68;;;;;;;9.07;38.24;99774.72;1676374;84;20989;-81
2022/01/16 04:24:01;;;;;;;2.17;0.65;;;;;;;9.35;37.83;99778.17;1676253;84;21088;-68
2022/01/16 04:26:28;;;;;;;1.37;0.50;;;;;;;9.16;38.11;99786.59;1676728;84;21374;-68
2022/01/16 04:28:54;;;;;;;2.22;0.50;;;;;;;9.32;37.77;99788.97;1676646;84;21038;-68
2022/01/16 04:31:23;;;;;;;1.70;0.50;;;;;;;10.32;36.56;99791.02;1676580;84;21080;-67
2022/01/16 04:33:51;;;;;;;2.40;0.60;;;;;;;9.79;36.70;99797.16;1673561;84;21158;-76
2022/01/16 04:36:18;;;;;;;1.80;0.50;;;;;;;9.08;37.47;99802.32;1673352;84;21184;-69
2022/01/16 04:38:47;;;;;;;2.37;0.50;;;;;;;9.06;37.86;99802.52;1673629;84;21072;-68
2022/01/16 04:43:59;;;;;;;1.45;0.60;;;;;;;9.05;37.50;99822.18;1676278;84;21180;-67
2022/01/16 04:46:27;;;;;;;2.47;0.70;;;;;;;9.45;36.92;99821.59;1676612;84;21117;-68
2022/01/16 04:48:55;;;;;;;3.37;1.00;;;;;;;9.31;36.90;99814.66;1676687;84;20998;-68
2022/01/16 04:51:22;;;;;;;2.10;0.40;;;;;;;9.32;36.78;99822.78;1676239;84;21073;-78
2022/01/16 04:53:49;;;;;;;1.37;0.50;;;;;;;9.25;36.59;99831.02;1676467;84;21188;-67
2022/01/16 04:56:16;;;;;;;1.55;0.47;;;;;;;9.18;36.66;99832.73;1676473;84;21080;-68
2022/01/16 04:58:47;;;;;;;1.35;0.40;;;;;;;9.17;36.69;99835.84;1672084;84;23165;-70
2022/01/16 05:01:18;;;;;;;1.27;0.40;;;;;;;9.04;37.11;99849.17;1675456;83;21012;-79
2022/01/16 05:03:45;;;;;;;1.80;0.80;;;;;;;8.86;37.21;99859.95;1680468;83;22455;-68
2022/01/16 05:06:14;;;;;;;1.57;0.50;;;;;;;8.59;37.56;99861.41;1681739;83;21474;-69
2022/01/16 05:08:40;;;;;;;3.50;1.30;;;;;;;8.90;37.52;99868.53;1678184;83;21083;-67
2022/01/16 05:11:08;;;;;;;4.00;1.50;;;;;;;8.95;37.51;99875.28;1695576;83;21159;-69
2022/01/16 05:18:54;;;;;;;3.55;1.30;;;;;;;9.21;37.58;99886.48;1682222;83;20996;-77
2022/01/16 05:21:21;;;;;;;5.00;1.67;;;;;;;9.17;37.89;99894.84;1681746;83;21111;-73
2022/01/16 05:23:47;;;;;;;3.40;1.35;;;;;;;9.42;37.61;99889.59;1679379;83;21158;-68
2022/01/16 05:26:17;;;;;;;4.30;2.10;;;;;;;9.49;37.51;99896.18;1679330;83;21143;-71
2022/01/16 05:28:43;;;;;;;4.00;1.80;;;;;;;9.65;37.38;99895.94;1679556;83;21556;-71
2022/01/16 05:31:10;;;;;;;2.25;0.90;;;;;;;9.41;37.74;99901.00;1676027;83;22418;-75
2022/01/16 05:33:36;;;;;;;1.77;0.80;;;;;;;9.32;38.10;99901.28;1677912;83;21138;-70
2022/01/16 05:36:04;;;;;;;2.20;0.60;;;;;;;9.48;38.11;99908.89;1679820;83;21155;-71
2022/01/16 05:38:32;;;;;;;2.72;0.93;;;;;;;9.38;38.25;99908.37;1678067;83;21039;-77
2022/01/16 05:40:59;;;;;;;2.00;0.60;;;;;;;9.56;38.25;99917.07;1673574;83;21102;-74
2022/01/16 05:43:25;;;;;;;2.98;0.72;;;;;;;9.56;38.35;99919.67;1675266;83;21099;-69
2022/01/16 05:45:52;;;;;;;3.08;0.70;;;;;;;9.47;38.52;99918.49;1679750;83;21064;-68
2022/01/16 05:48:19;;;;;;;8.38;2.30;;;;;;;9.38;38.70;99916.97;1675529;83;21130;-69
2022/01/16 05:50:51;;;;;;;6.37;2.08;;;;;;;9.37;38.94;99907.56;1679706;83;21059;-70
2022/01/16 05:53:17;;;;;;;2.40;1.00;;;;;;;9.49;39.01;99903.48;1675684;83;21083;-69
2022/01/16 05:55:44;;;;;;;3.42;1.15;;;;;;;9.71;38.62;99904.81;1675882;83;21389;-71
2022/01/16 05:58:11;;;;;;;4.12;1.60;;;;;;;9.56;38.84;99906.66;1676880;83;21997;-69
2022/01/16 06:00:47;;;;;;;2.27;0.82;;;;;;;9.56;38.85;99926.18;1677379;83;22143;-73
2022/01/16 06:03:13;;;;;;;2.77;1.07;;;;;;;9.71;38.75;99921.73;1660414;84;21149;-70
2022/01/16 06:05:43;;;;;;;1.80;0.70;;;;;;;9.61;38.80;99932.92;1663631;84;21121;-69
2022/01/16 06:08:12;;;;;;;1.87;0.68;;;;;;;9.61;38.97;99929.02;1665177;84;21121;-70
2022/01/16 06:10:39;;;;;;;1.92;0.60;;;;;;;9.59;39.11;99938.33;1664731;84;21102;-68
2022/01/16 06:13:08;;;;;;;1.82;0.70;;;;;;;9.65;39.15;99940.17;1663926;84;21145;-77
2022/01/16 06:15:35;;;;;;;5.05;1.98;;;;;;;9.63;39.25;99942.67;1664277;84;21128;-71
2022/01/16 06:18:02;;;;;;;3.37;1.20;;;;;;;9.54;39.46;99947.16;1665018;84;20984;-69
2022/01/16 06:20:31;;;;;;;2.08;0.75;;;;;;;9.67;39.35;99956.92;1664447;84;21163;-72
2022/01/16 06:22:57;;;;;;;1.65;0.60;;;;;;;9.73;38.95;99949.16;1663006;84;21078;-71
2022/01/16 06:25:25;;;;;;;4.58;1.75;;;;;;;9.56;38.92;99946.50;1665170;84;21133;-71
2022/01/16 06:27:51;;;;;;;2.87;1.32;;;;;;;9.45;38.84;99943.88;1663572;84;21850;-70
2022/01/16 06:30:20;;;;;;;6.85;3.17;;;;;;;9.52;38.25;99958.77;1663462;84;21027;-74
2022/01/16 06:32:46;;;;;;;2.52;0.90;;;;;;;9.09;38.53;99964.66;1663867;84;22588;-69
2022/01/16 06:35:15;;;;;;;2.62;0.70;;;;;;;9.53;37.78;99966.88;1667240;85;21543;-74
2022/01/16 06:37:45;;;;;;;1.77;0.70;;;;;;;9.55;37.84;99971.41;1666096;85;21117;-68
2022/01/16 06:40:12;;;;;;;2.80;0.53;;;;;;;9.42;37.92;99978.05;1670273;85;22290;-68
2022/01/16 06:42:40;;;;;;;3.75;0.70;;;;;;;9.56;37.89;99980.82;1669394;85;22261;-69
2022/01/16 06:45:08;;;;;;;2.02;0.70;;;;;;;9.74;37.63;99987.73;1667523;84;21180;-69
2022/01/16 06:47:34;;;;;;;1.98;0.60;;;;;;;9.87;37.28;99985.25;1670737;85;21061;-69
2022/01/16 06:50:01;;;;;;;3.42;0.55;;;;;;;9.84;37.26;99983.02;1668049;85;21166;-70
2022/01/16 06:52:27;;;;;;;1.47;0.40;;;;;;;9.80;37.42;99990.09;1671417;85;21586;-69
2022/01/16 06:54:54;;;;;;;2.27;0.82;;;;;;;9.83;37.34;99982.72;1670511;85;21614;-70
2022/01/16 06:57:22;;;;;;;3.12;0.60;;;;;;;9.98;37.16;99976.95;1662806;85;21056;-68
2022/01/16 06:59:50;;;;;;;3.80;1.47;;;;;;;10.31;36.91;99976.99;1658008;85;21046;-72
2022/01/16 07:02:19;;;;;;;3.62;1.57;;;;;;;10.27;36.72;99975.76;1654085;85;21140;-69
2022/01/16 07:04:46;;;;;;;3.25;1.35;;;;;;;10.37;36.62;99971.81;1695143;84;20966;-69
2022/01/16 07:07:12;;;;;;;4.97;1.98;;;;;;;10.38;36.76;99981.27;1661037;85;21040;-69
2022/01/16 07:09:40;;;;;;;3.70;1.20;;;;;;;10.47;36.51;99986.63;1700220;83;21028;-72
2022/01/16 07:12:09;;;;;;;5.42;1.95;;;;;;;10.42;36.52;99985.09;1698822;83;21017;-68
2022/01/16 07:14:36;;;;;;;9.63;3.60;;;;;;;10.79;36.36;99992.26;1696201;83;21778;-69
2022/01/16 07:17:04;;;;;;;8.48;3.08;;;;;;;11.08;36.07;99983.41;1695557;83;20983;-69
2022/01/16 07:19:31;;;;;;;7.33;3.30;;;;;;;11.23;35.98;99992.42;1691254;83;21032;-70
2022/01/16 07:21:59;;;;;;;5.33;2.58;;;;;;;11.04;36.40;99998.34;1694336;83;21482;-69
2022/01/16 07:24:31;;;;;;;3.77;1.45;;;;;;;10.74;36.59;99995.95;1694249;83;21032;-68
2022/01/16 07:27:00;;;;;;;4.35;1.82;;;;;;;10.60;36.68;100009.87;1693210;83;22294;-68
2022/01/16 07:29:29;;;;;;;5.25;1.37;;;;;;;10.72;36.69;100012.30;1698464;83;20985;-70
2022/01/16 07:32:00;;;;;;;3.37;0.98;;;;;;;10.68;36.67;100014.95;1696528;83;21076;-68
2022/01/16 07:34:26;;;;;;;4.08;0.65;;;;;;;10.54;36.76;100020.57;1691624;83;21116;-68
2022/01/16 07:36:53;;;;;;;4.40;1.32;;;;;;;10.43;37.03;100020.58;1698696;83;21388;-69
2022/01/16 07:39:19;;;;;;;13.55;4.22;;;;;;;10.60;36.81;100027.62;1696905;83;22011;-70
2022/01/16 07:41:46;;;;;;;5.03;1.57;;;;;;;10.56;37.06;100025.58;1699989;83;21563;-74
2022/01/16 07:44:14;;;;;;;13.93;4.67;;;;;;;10.72;36.84;100039.66;1692930;84;21106;-70
2022/01/16 07:46:41;;;;;;;46.13;18.12;;;;;;;10.75;36.86;100041.88;1691935;84;21160;-69
2022/01/16 07:49:09;;;;;;;34.58;12.68;;;;;;;10.64;37.10;100036.67;1691585;83;20960;-75
2022/01/16 07:51:38;;;;;;;8.50;3.22;;;;;;;10.78;37.11;100051.13;1689267;83;21227;-75
2022/01/16 07:54:06;;;;;;;10.50;3.98;;;;;;;10.73;37.17;100049.59;1692396;83;21072;-69
2022/01/16 07:56:33;;;;;;;3.12;1.15;;;;;;;10.90;37.21;100053.02;1693763;83;22438;-68
2022/01/16 07:59:00;;;;;;;4.65;1.72;;;;;;;10.86;37.35;100051.78;1691168;83;21516;-71
2022/01/16 08:01:26;;;;;;;4.17;1.00;;;;;;;10.77;37.65;100052.12;1694865;83;21109;-70
2022/01/16 08:03:53;;;;;;;3.90;0.95;;;;;;;10.90;37.77;100041.28;1697388;82;21110;-72
2022/01/16 08:06:19;;;;;;;3.50;0.95;;;;;;;11.07;37.70;100034.48;1697597;83;21076;-68
2022/01/16 08:08:46;;;;;;;3.65;1.07;;;;;;;11.29;37.47;100036.02;1700830;83;21168;-67
2022/01/16 08:11:18;;;;;;;3.27;0.95;;;;;;;11.18;37.93;100031.34;1693974;83;21044;-69
2022/01/16 08:13:44;;;;;;;2.30;0.90;;;;;;;11.20;38.21;100030.63;1694030;83;21014;-68
2022/01/16 08:16:14;;;;;;;2.30;1.00;;;;;;;11.51;38.23;100028.07;1664017;84;21049;-66
2022/01/16 08:18:41;;;;;;;3.67;1.57;;;;;;;11.63;38.12;100029.95;1648206;86;22462;-70
2022/01/16 08:21:09;;;;;;;3.47;1.30;;;;;;;11.74;38.00;100042.11;1688948;84;21025;-69
2022/01/16 08:23:36;;;;;;;3.52;1.32;;;;;;;11.68;38.30;100045.02;1692915;83;21157;-70
2022/01/16 08:26:06;;;;;;;2.50;1.27;;;;;;;11.92;37.90;100042.41;1680209;83;21625;-69
2022/01/16 08:28:33;;;;;;;2.22;0.90;;;;;;;12.07;37.67;100045.66;1681330;84;21179;-67
2022/01/16 08:30:59;;;;;;;2.92;0.90;;;;;;;11.83;37.88;100048.31;1681012;84;21535;-67
2022/01/16 08:33:28;;;;;;;2.37;0.80;;;;;;;11.80;38.07;100056.51;1681768;84;21002;-67
2022/01/16 08:35:54;;;;;;;2.55;0.80;;;;;;;12.07;37.86;100059.23;1682551;84;21033;-68
2022/01/16 08:38:26;;;;;;;2.70;0.85;;;;;;;11.96;38.03;100056.69;1681916;84;21590;-67
2022/01/16 08:40:52;;;;;;;3.58;1.02;;;;;;;11.74;38.45;100060.39;1681372;84;21169;-67
2022/01/16 08:43:24;;;;;;;1.98;0.72;;;;;;;12.00;39.03;100058.41;1681466;84;21022;-65
2022/01/16 08:45:51;;;;;;;2.08;0.68;;;;;;;11.92;39.32;100064.11;1681043;84;20985;-67
2022/01/16 08:48:20;;;;;;;1.92;0.55;;;;;;;12.64;39.38;100058.70;1681698;84;21593;-73
2022/01/16 08:50:45;;;;;;;3.75;1.10;;;;;;;12.06;39.96;100064.96;1681276;84;21586;-66
2022/01/16 08:53:12;;;;;;;2.20;0.80;;;;;;;12.15;40.45;100064.27;1687294;83;21157;-65
2022/01/16 08:55:42;;;;;;;2.62;0.93;;;;;;;12.37;40.31;100070.14;1686916;83;21009;-74
2022/01/16 08:58:08;;;;;;;2.72;1.02;;;;;;;12.65;40.04;100067.34;1687987;83;21104;-73
2022/01/16 09:00:35;;;;;;;3.17;1.07;;;;;;;12.91;39.51;100064.72;1686619;83;20977;-64
2022/01/16 09:03:03;;;;;;;3.15;1.07;;;;;;;12.98;39.49;100074.38;1688627;83;21054;-63
2022/01/16 09:05:31;;;;;;;3.42;0.88;;;;;;;12.34;40.29;100070.03;1686705;83;20896;-74
2022/01/16 09:07:58;;;;;;;3.47;1.07;;;;;;;12.37;40.27;100072.25;1686881;83;21120;-61
2022/01/16 09:10:25;;;;;;;2.35;1.20;;;;;;;12.32;40.65;100062.91;1686486;83;20999;-64
2022/01/16 09:12:53;;;;;;;2.25;0.80;;;;;;;12.52;40.84;100067.34;1686857;83;21594;-62
2022/01/16 09:15:21;;;;;;;1.40;0.68;;;;;;;12.60;40.31;100062.72;1687403;83;21082;-64
2022/01/16 09:17:49;;;;;;;1.98;0.78;;;;;;;12.39;40.07;100071.56;1684860;83;21205;-65
2022/01/16 09:20:15;;;;;;;2.92;0.72;;;;;;;12.50;40.06;100063.64;1685429;83;21082;-64
2022/01/16 09:22:44;;;;;;;2.58;0.75;;;;;;;12.71;39.87;100053.98;1689220;82;20969;-62
2022/01/16 09:25:12;;;;;;;2.30;1.00;;;;;;;12.76;39.89;100039.78;1691101;83;22571;-61
2022/01/16 09:27:38;;;;;;;3.62;1.67;;;;;;;12.76;39.86;100036.66;1686689;83;21629;-62
2022/01/16 09:30:07;;;;;;;3.10;1.20;;;;;;;12.83;39.70;100036.16;1688236;83;21135;-62
2022/01/16 09:32:35;;;;;;;1.80;0.60;;;;;;;13.10;39.59;100032.19;1688385;83;21116;-63
2022/01/16 09:35:01;;;;;;;1.60;0.70;;;;;;;13.49;38.79;100025.28;1691536;83;21122;-61
2022/01/16 09:37:28;;;;;;;2.33;0.70;;;;;;;13.75;38.36;100018.61;1686908;83;21013;-72
2022/01/16 09:39:55;;;;;;;1.90;0.82;;;;;;;13.60;38.32;100022.01;1690193;83;21039;-64
2022/01/16 09:42:22;;;;;;;4.30;1.52;;;;;;;13.70;37.99;100023.66;1687838;83;21086;-65
2022/01/16 09:44:51;;;;;;;6.03;1.50;;;;;;;13.93;37.63;100021.02;1684399;83;20950;-62
2022/01/16 09:47:17;;;;;;;4.10;1.60;;;;;;;14.03;37.72;100039.72;1655836;85;20972;-68
2022/01/16 09:49:45;;;;;;;2.90;1.20;;;;;;;14.26;37.24;100029.48;1688738;83;21045;-63
2022/01/16 09:52:14;;;;;;;2.52;1.20;;;;;;;14.35;37.01;100023.45;1683731;83;21087;-60
2022/01/16 09:54:41;;;;;;;2.45;0.90;;;;;;;14.43;36.84;100025.81;1685673;83;21139;-71
2022/01/16 09:57:09;;;;;;;2.65;0.90;;;;;;;14.75;36.72;100025.80;1683657;83;21040;-61
2022/01/16 09:59:35;;;;;;;2.65;1.02;;;;;;;14.71;36.59;100025.42;1666143;83;21510;-60
2022/01/16 10:02:06;;;;;;;4.70;1.32;;;;;;;14.63;36.55;100034.88;1684806;83;21180;-68
2022/01/16 10:04:40;;;;;;;3.10;1.40;;;;;;;14.43;36.60;100038.13;1687133;83;21102;-62
2022/01/16 10:07:13;;;;;;;2.75;1.07;;;;;;;14.41;36.83;100036.23;1688075;83;21384;-73
2022/01/16 10:09:42;;;;;;;3.20;1.20;;;;;;;13.72;37.55;100037.88;1688448;83;22122;-64
2022/01/16 10:12:18;;;;;;;4.20;1.80;;;;;;;13.55;37.88;100040.14;1682808;83;21083;-64
2022/01/16 10:14:49;;;;;;;3.98;1.22;;;;;;;13.13;38.41;100037.02;1684927;83;20997;-64
2022/01/16 10:17:21;;;;;;;5.72;1.98;;;;;;;13.09;38.58;100034.52;1691499;83;21053;-63
2022/01/16 10:20:03;;;;;;;3.35;1.30;;;;;;;12.91;38.72;100037.25;1692602;83;21120;-60
2022/01/16 10:22:49;;;;;;;4.33;1.40;;;;;;;12.86;39.00;100047.52;1657896;84;21072;-62
2022/01/16 10:25:49;;;;;;;4.20;1.37;;;;;;;13.19;38.44;100040.13;1636327;86;21529;-61
2022/01/16 10:28:22;;;;;;;4.62;1.60;;;;;;;13.22;38.43;100042.34;1680677;83;21465;-74
2022/01/16 10:30:54;;;;;;;4.28;1.82;;;;;;;13.25;38.56;100044.56;1678871;83;21029;-60
2022/01/16 10:33:33;;;;;;;3.35;1.30;;;;;;;13.52;38.40;100050.52;1698279;83;21148;-62
2022/01/16 10:36:01;;;;;;;3.60;1.40;;;;;;;13.55;38.24;100047.48;1688155;83;21054;-66
2022/01/16 10:38:32;;;;;;;5.03;1.98;;;;;;;13.54;38.11;100050.33;1697848;83;21153;-61
2022/01/16 10:40:59;;;;;;;5.22;2.92;;;;;;;13.12;38.63;100052.42;1700977;83;21092;-61
2022/01/16 10:43:44;;;;;;;4.72;2.02;;;;;;;13.29;38.37;100053.61;1702255;83;21071;-70
2022/01/16 10:46:12;;;;;;;4.70;1.67;;;;;;;13.30;38.37;100057.06;1699647;83;21180;-61
2022/01/16 10:48:39;;;;;;;3.65;1.45;;;;;;;13.43;38.27;100061.44;1701748;83;21034;-62
2022/01/16 10:51:19;;;;;;;3.70;1.00;;;;;;;13.52;38.11;100060.98;1700625;83;21038;-61
2022/01/16 10:53:46;;;;;;;1.75;0.60;;;;;;;13.32;38.38;100066.30;1699633;83;21158;-61
2022/01/16 10:56:12;;;;;;;1.98;0.70;;;;;;;13.36;38.35;100064.07;1698113;83;21116;-61
2022/01/16 10:58:45;;;;;;;2.37;0.82;;;;;;;13.34;38.21;100060.87;1696542;83;21062;-62
2022/01/16 11:01:16;;;;;;;2.95;1.20;;;;;;;13.19;38.21;100061.58;1700552;83;20976;-71
2022/01/16 11:03:49;;;;;;;3.33;0.90;;;;;;;13.42;37.92;100063.77;1707395;82;21207;-60
2022/01/16 11:06:17;;;;;;;2.95;0.90;;;;;;;13.61;37.71;100058.97;1701380;84;21609;-61
2022/01/16 11:08:56;;;;;;;2.87;1.20;;;;;;;13.54;37.83;100052.95;1701073;84;21586;-63
2022/01/16 11:11:25;;;;;;;2.15;0.75;;;;;;;12.88;38.68;100058.61;1695722;84;21265;-62
2022/01/16 11:13:56;;;;;;;2.80;1.05;;;;;;;13.10;38.54;100063.08;1698488;84;21068;-63
2022/01/16 11:16:24;;;;;;;2.77;1.12;;;;;;;12.98;38.59;100064.72;1696791;84;21033;-62
2022/01/16 11:18:51;;;;;;;2.52;1.20;;;;;;;13.38;38.26;100064.68;1699678;84;21085;-65
2022/01/16 11:21:31;;;;;;;2.02;0.90;;;;;;;13.51;38.04;100056.77;1698542;84;21116;-66
2022/01/16 11:26:18;;;;;;;5.53;2.20;;;;;;;13.55;37.72;100062.40;1696482;84;21072;-62
2022/01/16 11:28:45;;;;;;;3.87;1.27;;;;;;;13.62;37.57;100071.84;1699214;84;21043;-62
2022/01/16 11:31:12;;;;;;;4.45;1.45;;;;;;;13.07;38.25;100076.59;1697970;84;21723;-71
2022/01/16 11:33:42;;;;;;;3.35;1.00;;;;;;;13.24;38.00;100080.91;1700553;84;22542;-64
2022/01/16 11:36:13;;;;;;;2.02;0.80;;;;;;;13.15;38.13;100080.81;1697604;84;21187;-61
2022/01/16 11:38:49;;;;;;;2.87;1.12;;;;;;;13.18;37.72;100084.31;1692371;83;22532;-73
2022/01/16 11:41:30;;;;;;;1.65;0.53;;;;;;;12.87;38.14;100085.75;1670179;83;22021;-61
2022/01/16 11:43:54;;;;;;;1.80;0.60;;;;;;;12.81;38.74;100092.31;1694208;83;20978;-61
2022/01/16 11:46:28;;;;;;;3.70;1.07;;;;;;;12.47;39.97;100101.14;1691147;83;21037;-74
2022/01/16 11:49:06;;;;;;;2.42;0.85;;;;;;;12.47;40.48;100107.17;1688927;83;22109;-67
2022/01/16 11:51:39;;;;;;;2.47;1.00;;;;;;;11.87;41.65;100105.69;1689686;83;21116;-62
2022/01/16 11:54:32;;;;;;;1.75;0.65;;;;;;;11.57;42.73;100114.76;1691883;83;21017;-75
2022/01/16 11:57:07;;;;;;;1.55;0.70;;;;;;;11.60;43.50;100116.98;1687070;83;21135;-64
2022/01/16 11:59:40;;;;;;;2.08;0.80;;;;;;;11.15;44.26;100113.89;1688787;83;21573;-78
2022/01/16 12:02:16;;;;;;;3.10;0.82;;;;;;;10.94;44.93;100109.01;1690713;83;21176;-64
2022/01/16 12:04:49;;;;;;;2.10;0.80;;;;;;;11.08;44.92;100114.34;1687370;83;21098;-65
2022/01/16 12:07:24;;;;;;;2.60;0.70;;;;;;;11.15;45.11;100114.70;1682510;83;21091;-79
2022/01/16 12:09:54;;;;;;;2.35;0.82;;;;;;;11.19;45.10;100119.84;1682692;84;21168;-64
2022/01/16 12:12:28;;;;;;;2.70;1.00;;;;;;;11.35;44.83;100120.05;1685662;83;21063;-63
2022/01/16 12:15:03;;;;;;;3.33;1.32;;;;;;;11.28;44.87;100115.27;1683607;83;22621;-73
2022/01/16 12:17:45;;;;;;;4.53;1.35;;;;;;;12.37;43.64;100113.27;1684205;83;21109;-64
2022/01/16 12:20:20;;;;;;;3.42;0.90;;;;;;;12.45;43.37;100120.12;1685160;83;21316;-64
2022/01/16 12:23:00;;;;;;;2.27;0.85;;;;;;;12.56;43.28;100122.95;1685072;83;21138;-70
2022/01/16 12:25:33;;;;;;;3.20;1.00;;;;;;;12.27;43.34;100123.30;1686243;83;21044;-64
2022/01/16 12:28:17;;;;;;;2.22;0.90;;;;;;;12.36;43.33;100126.05;1686365;83;21036;-65